createdAt,value
2023-02-07T00:04:17.391Z,9.90
2023-02-07T00:09:22.183Z,13.80
2023-02-07T00:14:25.841Z,14.27
2023-02-07T00:19:29.485Z,12.40
2023-02-07T00:24:34.270Z,12.80
2023-02-07T00:29:37.724Z,12.18
2023-02-07T00:34:41.239Z,11.38
2023-02-07T00:39:45.973Z,11.30
2023-02-07T00:44:50.160Z,11.70
2023-02-07T00:49:53.885Z,11.60
2023-02-07T00:54:58.504Z,10.95
2023-02-07T01:00:01.766Z,10.83
2023-02-07T01:05:05.289Z,11.45
2023-02-07T01:10:11.590Z,11.57
2023-02-07T01:15:16.795Z,12.68
2023-02-07T01:20:20.864Z,10.60
2023-02-07T01:25:26.849Z,9.90
2023-02-07T01:30:30.653Z,11.50
2023-02-07T01:35:34.216Z,10.63
2023-02-07T01:40:39.623Z,10.27
2023-02-07T01:45:43.540Z,11.48
2023-02-07T01:50:50.216Z,10.77
2023-02-07T01:55:58.652Z,11.00
2023-02-07T02:01:05.773Z,12.57
2023-02-07T02:06:09.957Z,12.63
2023-02-07T02:11:45.820Z,12.98
2023-02-07T02:16:59.357Z,12.55
2023-02-07T02:22:53.943Z,11.45
2023-02-07T02:28:24.015Z,11.43
2023-02-07T02:33:41.340Z,10.68
2023-02-07T02:38:54.446Z,11.48
2023-02-07T02:44:02.841Z,10.88
2023-02-07T02:49:11.210Z,11.90
2023-02-07T02:54:33.400Z,11.27
2023-02-07T03:00:12.606Z,10.52
2023-02-07T03:05:32.079Z,10.13
2023-02-07T03:10:44.373Z,11.57
2023-02-07T03:15:57.163Z,10.60
2023-02-07T03:21:08.516Z,10.80
2023-02-07T03:26:12.097Z,10.55
2023-02-07T03:31:18.951Z,10.98
2023-02-07T03:36:30.164Z,12.55
2023-02-07T03:41:39.726Z,10.93
2023-02-07T03:46:43.794Z,11.20
2023-02-07T03:51:50.224Z,11.57
2023-02-07T03:56:53.515Z,11.10
2023-02-07T04:01:56.906Z,10.50
2023-02-07T04:07:02.000Z,10.75
2023-02-07T04:12:05.836Z,12.00
2023-02-07T04:17:09.182Z,11.90
2023-02-07T04:22:13.956Z,11.15
2023-02-07T04:27:17.792Z,11.60
2023-02-07T04:32:21.111Z,11.75
2023-02-07T04:37:25.843Z,13.10
2023-02-07T04:42:29.257Z,13.18
2023-02-07T04:47:32.669Z,14.02
2023-02-07T04:52:38.107Z,15.43
2023-02-07T05:02:45.408Z,17.05
2023-02-07T05:07:50.619Z,16.77
2023-02-07T05:12:54.235Z,13.25
2023-02-07T05:17:58.509Z,13.32
2023-02-07T05:23:04.541Z,16.83
2023-02-07T05:28:08.236Z,19.38
2023-02-07T05:33:12.322Z,16.80
2023-02-07T05:38:19.088Z,13.73
2023-02-07T05:43:22.763Z,15.70
2023-02-07T05:48:26.166Z,15.82
2023-02-07T05:53:31.253Z,15.20
2023-02-07T05:58:34.917Z,14.80
2023-02-07T06:03:38.631Z,14.50
2023-02-07T06:08:43.512Z,13.32
2023-02-07T06:13:47.226Z,16.50
2023-02-07T06:18:50.918Z,13.75
2023-02-07T06:23:56.089Z,16.20
2023-02-07T06:28:59.451Z,14.38
2023-02-07T06:34:03.093Z,13.57
2023-02-07T06:39:07.846Z,15.27
2023-02-07T06:44:11.391Z,15.85
2023-02-07T06:49:14.775Z,13.68
2023-02-07T06:54:19.788Z,15.52
2023-02-07T06:59:23.092Z,16.48
2023-02-07T07:04:26.338Z,14.85
2023-02-07T07:09:30.944Z,15.48
2023-02-07T07:14:34.259Z,17.13
2023-02-07T07:19:37.955Z,15.95
2023-02-07T07:24:42.950Z,14.75
2023-02-07T07:29:47.158Z,17.95
2023-02-07T07:34:51.152Z,17.20
2023-02-07T07:39:55.751Z,18.25
2023-02-07T07:44:59.027Z,18.30
2023-02-07T07:50:02.464Z,16.75
2023-02-07T07:55:08.128Z,18.90
2023-02-07T08:00:13.283Z,20.25
2023-02-07T08:05:16.820Z,20.25
2023-02-07T08:10:21.698Z,19.98
2023-02-07T08:15:25.244Z,19.92
2023-02-07T08:20:29.202Z,18.55
2023-02-07T08:25:34.352Z,19.88
2023-02-07T08:30:38.208Z,18.17
2023-02-07T08:35:42.192Z,19.83
2023-02-07T08:40:47.890Z,19.52
2023-02-07T08:45:51.600Z,18.92
2023-02-07T08:50:56.094Z,21.27
2023-02-07T08:56:02.219Z,21.52
2023-02-07T09:01:07.891Z,20.67
2023-02-07T09:06:11.952Z,19.13
2023-02-07T09:11:16.843Z,20.65
2023-02-07T09:16:20.273Z,20.23
2023-02-07T09:21:24.031Z,20.50
2023-02-07T09:26:31.203Z,21.15
2023-02-07T09:31:35.714Z,22.05
2023-02-07T09:36:39.140Z,18.97
2023-02-07T09:41:53.712Z,22.15
2023-02-07T09:47:03.409Z,21.75
2023-02-07T09:52:12.586Z,21.33
2023-02-07T09:57:27.063Z,21.65
2023-02-07T10:02:35.481Z,21.20
2023-02-07T10:07:39.142Z,20.70
2023-02-07T10:13:09.584Z,20.70
2023-02-07T10:18:39.493Z,22.85
2023-02-07T10:24:17.664Z,21.13
2023-02-07T10:29:40.063Z,23.10
2023-02-07T10:34:47.855Z,21.23
2023-02-07T10:39:59.545Z,19.98
2023-02-07T10:45:05.401Z,21.48
2023-02-07T10:50:13.929Z,20.90
2023-02-07T10:55:22.420Z,22.10
2023-02-07T11:00:29.548Z,20.60
2023-02-07T11:05:38.536Z,22.50
2023-02-07T11:10:44.119Z,21.33
2023-02-07T11:15:53.336Z,24.13
2023-02-07T11:20:57.537Z,20.90
2023-02-07T11:26:03.636Z,20.02
2023-02-07T11:31:14.602Z,21.50
2023-02-07T11:36:24.541Z,22.00
2023-02-07T11:41:29.920Z,19.90
2023-02-07T11:46:39.092Z,19.67
2023-02-07T11:51:42.522Z,22.25
2023-02-07T11:56:50.163Z,23.02
2023-02-07T12:01:57.154Z,21.50
2023-02-07T12:07:05.852Z,20.70
2023-02-07T12:12:20.501Z,22.15
2023-02-07T12:17:33.678Z,21.50
2023-02-07T12:22:44.552Z,22.88
2023-02-07T12:27:57.871Z,23.05
2023-02-07T12:33:11.927Z,23.27
2023-02-07T12:38:22.972Z,22.45
2023-02-07T12:43:29.131Z,23.67
2023-02-07T12:48:56.644Z,21.88
2023-02-07T12:54:12.700Z,22.60
2023-02-07T12:59:24.713Z,21.08
2023-02-07T13:04:55.841Z,21.10
2023-02-07T13:10:08.499Z,21.73
2023-02-07T13:15:22.933Z,23.10
2023-02-07T13:20:48.750Z,19.63
2023-02-07T13:25:58.581Z,22.75
2023-02-07T13:31:03.085Z,22.50
2023-02-07T13:36:14.697Z,21.77
2023-02-07T13:41:30.313Z,22.67
2023-02-07T13:47:19.333Z,23.20
2023-02-07T13:52:32.610Z,21.35
2023-02-07T13:58:02.228Z,23.15
2023-02-07T14:03:08.966Z,24.42
2023-02-07T14:08:25.485Z,23.83
2023-02-07T14:13:34.808Z,24.15
2023-02-07T14:18:52.169Z,22.88
2023-02-07T14:24:19.633Z,23.77
2023-02-07T14:30:03.328Z,26.70
2023-02-07T14:35:30.269Z,23.58
2023-02-07T14:41:01.878Z,27.00
2023-02-07T14:46:17.137Z,24.15
2023-02-07T14:51:24.958Z,24.33
2023-02-07T14:56:47.917Z,25.38
2023-02-07T15:01:51.198Z,24.50
2023-02-07T15:06:55.054Z,26.58
2023-02-07T15:12:18.867Z,23.58
2023-02-07T15:17:43.511Z,26.25
2023-02-07T15:22:50.090Z,25.80
2023-02-07T15:28:09.251Z,24.38
2023-02-07T15:33:20.556Z,26.55
2023-02-07T15:38:25.520Z,21.55
2023-02-07T15:43:33.031Z,25.05
2023-02-07T15:48:49.122Z,25.85
2023-02-07T15:53:56.822Z,23.85
2023-02-07T15:59:10.672Z,23.60
2023-02-07T16:04:14.387Z,23.65
2023-02-07T16:09:37.217Z,26.30
2023-02-07T16:14:43.768Z,21.42
2023-02-07T16:19:47.623Z,20.63
2023-02-07T16:24:52.916Z,21.92
2023-02-07T16:29:58.491Z,24.05
2023-02-07T16:35:02.177Z,21.73
2023-02-07T16:40:06.451Z,23.48
2023-02-07T16:45:18.766Z,22.02
2023-02-07T16:50:23.902Z,21.77
2023-02-07T16:55:29.410Z,23.27
2023-02-07T17:00:34.754Z,22.83
2023-02-07T17:10:42.828Z,22.70
2023-02-07T17:15:47.578Z,23.70
2023-02-07T17:20:54.366Z,22.88
2023-02-07T17:25:58.956Z,22.33
2023-02-07T17:31:04.011Z,20.90
2023-02-07T17:36:08.672Z,22.23
2023-02-07T17:41:13.094Z,25.83
2023-02-07T17:46:20.309Z,23.05
2023-02-07T17:51:26.985Z,24.77
2023-02-07T17:56:33.062Z,24.50
2023-02-07T18:01:37.688Z,25.63
2023-02-07T18:06:41.486Z,24.77
2023-02-07T18:11:45.442Z,25.02
2023-02-07T18:16:50.198Z,23.85
2023-02-07T18:21:53.607Z,23.30
2023-02-07T18:26:57.016Z,24.08
2023-02-07T18:32:01.792Z,28.85
2023-02-07T18:37:05.100Z,22.25
2023-02-07T18:42:08.742Z,26.02
2023-02-07T18:47:14.020Z,23.40
2023-02-07T18:52:17.720Z,24.63
2023-02-07T18:57:20.997Z,23.27
2023-02-07T19:02:26.143Z,25.70
2023-02-07T19:07:29.483Z,22.55
2023-02-07T19:12:33.189Z,22.38
2023-02-07T19:17:38.334Z,22.38
2023-02-07T19:22:42.004Z,22.20
2023-02-07T19:27:45.576Z,23.25
2023-02-07T19:32:53.459Z,23.55
2023-02-07T19:37:56.732Z,23.17
2023-02-07T19:43:00.405Z,24.27
2023-02-07T19:48:05.586Z,23.45
2023-02-07T19:53:09.278Z,26.63
2023-02-07T19:58:12.934Z,26.60
2023-02-07T20:03:19.135Z,26.38
2023-02-07T20:08:22.813Z,22.85
2023-02-07T20:13:26.122Z,27.67
2023-02-07T20:18:31.246Z,25.67
2023-02-07T20:23:35.343Z,31.83
2023-02-07T20:28:39.311Z,29.40
2023-02-07T20:33:44.593Z,30.10
2023-02-07T20:43:51.501Z,29.15
2023-02-07T20:49:01.081Z,32.53
2023-02-07T20:54:06.849Z,30.20
2023-02-07T20:59:14.555Z,31.77
2023-02-07T21:04:19.339Z,27.40
2023-02-07T21:09:22.988Z,31.42
2023-02-07T21:14:29.485Z,23.85
2023-02-07T21:19:35.178Z,28.00
2023-02-07T21:24:38.558Z,24.90
2023-02-07T21:29:42.372Z,28.08
2023-02-07T21:34:49.177Z,25.00
2023-02-07T21:39:53.120Z,27.27
2023-02-07T21:44:56.974Z,30.48
2023-02-07T21:50:02.603Z,30.88
2023-02-07T21:55:06.419Z,24.95
2023-02-07T22:00:12.235Z,25.50
2023-02-07T22:05:17.031Z,27.58
2023-02-07T22:10:20.358Z,26.80
2023-02-07T22:15:23.654Z,25.00
2023-02-07T22:20:28.679Z,25.65
2023-02-07T22:25:32.094Z,26.73
2023-02-07T22:30:37.364Z,23.10
2023-02-07T22:40:47.331Z,23.85
2023-02-07T22:45:51.123Z,22.92
2023-02-07T22:50:56.270Z,21.20
2023-02-07T22:56:02.530Z,24.42
2023-02-07T23:01:06.758Z,22.00
2023-02-07T23:06:11.477Z,24.00
2023-02-07T23:11:17.250Z,18.13
2023-02-07T23:16:22.920Z,20.77
2023-02-07T23:21:27.994Z,22.00
2023-02-07T23:26:31.328Z,18.60
2023-02-07T23:31:35.433Z,20.13
2023-02-07T23:36:40.730Z,21.42
2023-02-07T23:46:47.208Z,22.15
2023-02-07T23:51:51.878Z,20.80
2023-02-07T23:56:55.173Z,20.55
